To NAV CANADA Home Page Login to a new session Search on AWWS site Disclaimer Vers la page française équivalente Tips FAQ What's new on the site To the Forecasts and Observations / NOTAM section To "File a Flight Plan" website Publications and other links Update of the User's profile FIC Telephone Numbers My Weather Data Folder Route Weather Data Regional Weather Data Local Weather Data To the Forecasts and Observations / NOTAM section
Request Generated 03/19/2019 at 23:21:52 UTC . Weather information available at that time is displayed.

METAR/TAF

SUDBURY/ON    

METAR CYSB 192300Z 21014G20KT 20SM FEW070 01/M06 A3019 RMK AC2 SLP245=
METAR CYSB 192200Z 22015G21KT 20SM FEW040 SCT070 02/M09 A3020 RMK CU1AC2 SLP246=
METAR CYSB 192100Z 22014KT 20SM FEW035 BKN069 02/M09 A3021 RMK CU2AC4 SLP250=

TAF CYSB 191938Z 1920/2008 21012KT P6SM FEW030 BKN060 TEMPO 1920/1921
5SM -SHSNRA BKN030
FM200300 20008KT P6SM BKN030
RMK NXT FCST BY 200200Z=
Your time UTC time
Weather data provided by Environment Canada and NAV CANADA